createdAt,value
2022-08-07T00:02:41.615Z,16.00
2022-08-07T00:06:51.973Z,16.00
2022-08-07T00:10:58.161Z,15.90
2022-08-07T00:15:01.687Z,15.80
2022-08-07T00:19:05.680Z,15.70
2022-08-07T00:23:09.103Z,15.70
2022-08-07T00:27:13.639Z,15.60
2022-08-07T00:31:18.484Z,15.50
2022-08-07T00:35:23.232Z,15.50
2022-08-07T00:39:26.600Z,15.40
2022-08-07T00:44:00.198Z,15.40
2022-08-07T00:48:09.550Z,15.30
2022-08-07T00:52:13.908Z,15.30
2022-08-07T00:56:21.001Z,15.30
2022-08-07T01:00:25.796Z,15.30
2022-08-07T01:04:30.347Z,15.30
2022-08-07T01:08:35.998Z,15.30
2022-08-07T01:12:53.903Z,15.30
2022-08-07T01:17:00.275Z,15.20
2022-08-07T01:21:22.433Z,15.20
2022-08-07T01:25:53.613Z,15.20
2022-08-07T01:29:50.485Z,15.20
2022-08-07T01:33:56.265Z,15.20
2022-08-07T01:38:02.344Z,15.10
2022-08-07T01:42:37.675Z,15.00
2022-08-07T01:46:31.198Z,15.00
2022-08-07T01:50:37.755Z,14.90
2022-08-07T01:54:47.234Z,14.80
2022-08-07T01:58:55.498Z,14.80
2022-08-07T02:03:11.948Z,14.70
2022-08-07T02:07:44.997Z,14.60
2022-08-07T02:12:03.704Z,14.50
2022-08-07T02:16:11.826Z,14.50
2022-08-07T02:20:23.530Z,14.50
2022-08-07T02:24:29.379Z,14.40
2022-08-07T02:28:36.408Z,14.30
2022-08-07T02:33:07.187Z,14.40
2022-08-07T02:37:09.411Z,14.30
2022-08-07T02:41:14.375Z,14.20
2022-08-07T02:46:00.330Z,14.20
2022-08-07T02:49:58.285Z,14.20
2022-08-07T02:54:04.432Z,14.20
2022-08-07T02:58:11.834Z,14.20
2022-08-07T03:02:17.224Z,14.20
2022-08-07T03:06:26.065Z,14.20
2022-08-07T03:10:41.004Z,14.10
2022-08-07T03:14:52.130Z,14.00
2022-08-07T03:18:57.531Z,14.00
2022-08-07T03:23:01.129Z,13.90
2022-08-07T03:27:06.204Z,13.90
2022-08-07T03:31:24.846Z,13.80
2022-08-07T03:35:50.374Z,13.80
2022-08-07T03:40:13.458Z,13.80
2022-08-07T03:44:21.585Z,13.80
2022-08-07T03:49:02.112Z,13.90
2022-08-07T03:53:02.340Z,14.00
2022-08-07T03:57:07.670Z,14.00
2022-08-07T04:01:13.907Z,13.90
2022-08-07T04:05:28.725Z,13.90
2022-08-07T04:09:50.177Z,14.00
2022-08-07T04:14:11.025Z,14.00
2022-08-07T04:18:57.907Z,14.10
2022-08-07T04:22:53.229Z,14.20
2022-08-07T04:26:59.792Z,14.20
2022-08-07T04:31:04.535Z,14.30
2022-08-07T04:35:11.990Z,14.30
2022-08-07T04:39:17.650Z,14.30
2022-08-07T04:44:10.082Z,14.40
2022-08-07T04:48:06.143Z,14.60
2022-08-07T04:52:25.126Z,14.70
2022-08-07T04:58:15.549Z,14.90
2022-08-07T05:01:15.776Z,15.00
2022-08-07T05:05:53.344Z,15.10
2022-08-07T05:09:59.463Z,15.20
2022-08-07T05:14:55.860Z,15.30
2022-08-07T05:18:37.852Z,15.40
2022-08-07T05:22:45.884Z,15.50
2022-08-07T05:26:54.622Z,15.70
2022-08-07T05:30:59.311Z,15.70
2022-08-07T05:35:07.794Z,15.70
2022-08-07T05:40:05.925Z,15.80
2022-08-07T05:43:50.191Z,16.00
2022-08-07T05:48:03.199Z,16.10
2022-08-07T05:52:11.606Z,16.20
2022-08-07T05:56:16.766Z,16.30
2022-08-07T06:00:20.333Z,16.40
2022-08-07T06:04:29.781Z,16.60
2022-08-07T06:08:40.435Z,16.80
2022-08-07T06:12:45.870Z,17.00
2022-08-07T06:16:56.241Z,17.10
2022-08-07T06:22:16.273Z,17.30
2022-08-07T06:25:26.548Z,17.40
2022-08-07T06:29:30.306Z,17.60
2022-08-07T06:33:33.978Z,17.80
2022-08-07T06:37:43.418Z,18.00
2022-08-07T06:42:01.951Z,18.40
2022-08-07T06:46:06.554Z,18.70
2022-08-07T06:50:15.979Z,18.90
2022-08-07T06:55:32.932Z,19.20
2022-08-07T07:00:14.843Z,19.70
2022-08-07T07:03:17.179Z,20.10
2022-08-07T07:08:00.050Z,20.50
2022-08-07T07:12:09.881Z,20.80
2022-08-07T07:16:19.656Z,21.10
2022-08-07T07:20:26.939Z,21.70
2022-08-07T07:24:30.593Z,22.30
2022-08-07T07:29:23.532Z,22.60
2022-08-07T07:33:07.630Z,23.30
2022-08-07T07:37:22.193Z,23.60
2022-08-07T07:41:50.816Z,24.20
2022-08-07T07:46:37.328Z,24.40
2022-08-07T07:50:38.281Z,24.80
2022-08-07T07:54:50.671Z,24.80
2022-08-07T07:58:57.213Z,25.00
2022-08-07T08:04:05.942Z,25.40
2022-08-07T08:07:59.671Z,25.70
2022-08-07T08:12:06.085Z,26.10
2022-08-07T08:16:12.671Z,25.80
2022-08-07T08:20:23.162Z,25.70
2022-08-07T08:25:04.513Z,25.80
2022-08-07T08:29:19.480Z,25.80
2022-08-07T08:33:28.920Z,26.30
2022-08-07T08:38:01.337Z,27.20
2022-08-07T08:42:06.464Z,26.70
2022-08-07T08:46:20.532Z,26.70
2022-08-07T08:50:39.315Z,27.40
2022-08-07T08:55:09.398Z,27.20
2022-08-07T08:59:24.372Z,27.40
2022-08-07T09:03:47.470Z,27.50
2022-08-07T09:07:57.958Z,28.10
2022-08-07T09:12:20.270Z,29.00
2022-08-07T09:16:50.569Z,29.70
2022-08-07T09:21:05.230Z,30.10
2022-08-07T09:25:17.208Z,30.40
2022-08-07T09:30:03.368Z,29.90
2022-08-07T09:34:09.705Z,30.10
2022-08-07T09:38:21.076Z,29.70
2022-08-07T09:42:41.872Z,28.90
2022-08-07T09:47:51.688Z,28.60
2022-08-07T09:52:10.322Z,28.50
2022-08-07T09:56:34.107Z,28.50
2022-08-07T10:01:01.927Z,28.90
2022-08-07T10:06:00.052Z,29.30
2022-08-07T10:10:21.970Z,29.00
2022-08-07T10:14:54.240Z,28.50
2022-08-07T10:19:22.883Z,28.40
2022-08-07T10:24:05.346Z,28.30
2022-08-07T10:28:29.112Z,28.70
2022-08-07T10:32:52.803Z,29.00
2022-08-07T10:37:12.506Z,28.80
2022-08-07T10:41:46.865Z,29.10
2022-08-07T10:45:57.593Z,29.10
2022-08-07T10:50:07.619Z,29.00
2022-08-07T10:54:19.936Z,28.80
2022-08-07T10:58:40.772Z,28.50
2022-08-07T11:03:02.074Z,28.30
2022-08-07T11:07:56.164Z,28.00
2022-08-07T11:11:51.712Z,28.60
2022-08-07T11:15:58.526Z,29.20
2022-08-07T11:20:07.741Z,29.70
2022-08-07T11:24:19.533Z,29.60
2022-08-07T11:28:30.015Z,29.80
2022-08-07T11:32:40.622Z,29.80
2022-08-07T11:36:56.318Z,30.00
2022-08-07T11:41:02.486Z,29.40
2022-08-07T11:45:20.473Z,29.50
2022-08-07T11:50:18.696Z,29.20
2022-08-07T11:54:25.458Z,28.80
2022-08-07T11:58:39.546Z,28.60
2022-08-07T12:03:44.805Z,28.60
2022-08-07T12:07:53.476Z,28.80
2022-08-07T12:12:11.640Z,29.10
2022-08-07T12:16:30.051Z,29.20
2022-08-07T12:20:37.783Z,29.20
2022-08-07T12:25:10.624Z,29.10
2022-08-07T12:29:43.324Z,28.70
2022-08-07T12:34:00.984Z,28.80
2022-08-07T12:38:10.714Z,28.80
2022-08-07T12:42:32.330Z,28.70
2022-08-07T12:46:56.399Z,28.70
2022-08-07T12:51:13.248Z,28.80
2022-08-07T12:55:41.208Z,28.60
2022-08-07T12:59:55.838Z,28.20
2022-08-07T13:04:34.010Z,28.10
2022-08-07T13:08:50.846Z,28.60
2022-08-07T13:13:09.354Z,28.60
2022-08-07T13:17:21.196Z,28.60
2022-08-07T13:21:37.404Z,28.60
2022-08-07T13:26:00.878Z,28.20
2022-08-07T13:30:19.411Z,28.40
2022-08-07T13:34:44.754Z,28.80
2022-08-07T13:39:11.101Z,29.60
2022-08-07T13:43:17.160Z,30.90
2022-08-07T13:48:08.419Z,32.00
2022-08-07T13:52:04.555Z,31.90
2022-08-07T13:56:12.280Z,31.70
2022-08-07T14:00:26.270Z,31.80
2022-08-07T14:04:36.028Z,31.60
2022-08-07T14:08:48.759Z,31.60
2022-08-07T14:13:03.664Z,32.20
2022-08-07T14:17:32.133Z,32.40
2022-08-07T14:22:04.283Z,32.70
2022-08-07T14:26:02.304Z,32.90
2022-08-07T14:30:11.580Z,32.70
2022-08-07T14:34:20.293Z,32.10
2022-08-07T14:38:30.750Z,32.40
2022-08-07T14:43:00.659Z,32.40
2022-08-07T14:47:14.156Z,32.30
2022-08-07T14:52:04.790Z,32.30
2022-08-07T14:55:56.094Z,32.50
2022-08-07T15:00:06.156Z,32.30
2022-08-07T15:04:28.805Z,32.00
2022-08-07T15:08:47.575Z,31.50
2022-08-07T15:17:32.669Z,31.10
2022-08-07T15:22:04.592Z,30.90
2022-08-07T15:26:10.310Z,30.60
2022-08-07T15:30:26.375Z,30.40
2022-08-07T15:39:05.720Z,30.20
2022-08-07T15:43:52.812Z,29.90
2022-08-07T15:48:00.807Z,29.70
2022-08-07T15:52:07.858Z,29.30
2022-08-07T15:56:16.138Z,29.10
2022-08-07T16:00:31.663Z,29.00
2022-08-07T16:04:39.177Z,28.80
2022-08-07T16:08:45.460Z,28.50
2022-08-07T16:13:05.664Z,28.30
2022-08-07T16:18:00.827Z,28.20
2022-08-07T16:22:17.742Z,28.10
2022-08-07T16:26:59.368Z,28.00
2022-08-07T16:31:50.796Z,27.90
2022-08-07T16:35:52.032Z,27.70
2022-08-07T16:40:33.365Z,27.50
2022-08-07T16:45:15.161Z,27.50
2022-08-07T16:50:28.508Z,27.20
2022-08-07T16:54:32.524Z,27.10
2022-08-07T16:59:11.026Z,27.00
2022-08-07T17:03:58.056Z,26.80
2022-08-07T17:07:58.025Z,26.60
2022-08-07T17:12:34.310Z,26.40
2022-08-07T17:16:44.155Z,26.30
2022-08-07T17:20:59.919Z,26.20
2022-08-07T17:25:16.926Z,26.10
2022-08-07T17:30:15.340Z,26.20
2022-08-07T17:34:33.402Z,26.20
2022-08-07T17:38:33.637Z,26.10
2022-08-07T17:42:59.096Z,25.90
2022-08-07T17:47:08.546Z,25.70
2022-08-07T17:51:21.596Z,25.90
2022-08-07T17:55:56.625Z,25.80
2022-08-07T18:00:03.495Z,25.50
2022-08-07T18:04:24.535Z,25.30
2022-08-07T18:09:01.269Z,25.00
2022-08-07T18:13:16.647Z,24.90
2022-08-07T18:18:46.614Z,24.70
2022-08-07T18:22:05.375Z,24.50
2022-08-07T18:26:16.374Z,24.40
2022-08-07T18:30:37.000Z,24.30
2022-08-07T18:35:07.935Z,24.10
2022-08-07T18:40:08.523Z,23.90
2022-08-07T18:43:57.820Z,23.80
2022-08-07T18:48:09.423Z,23.70
2022-08-07T18:52:54.250Z,23.50
2022-08-07T18:57:30.629Z,23.40
2022-08-07T19:02:19.755Z,23.30
2022-08-07T19:06:10.262Z,23.10
2022-08-07T19:10:23.973Z,23.00
2022-08-07T19:14:51.937Z,22.90
2022-08-07T19:19:01.357Z,22.80
2022-08-07T19:23:18.466Z,22.60
2022-08-07T19:28:30.306Z,22.50
2022-08-07T19:32:17.428Z,22.30
2022-08-07T19:36:27.728Z,22.20
2022-08-07T19:40:50.437Z,22.00
2022-08-07T19:44:56.734Z,21.80
2022-08-07T19:49:08.524Z,21.70
2022-08-07T19:54:35.361Z,21.60
2022-08-07T19:58:03.262Z,21.50
2022-08-07T20:02:10.161Z,21.30
2022-08-07T20:06:28.462Z,21.20
2022-08-07T20:10:54.802Z,21.10
2022-08-07T20:15:02.733Z,20.90
2022-08-07T20:19:11.219Z,20.80
2022-08-07T20:23:32.921Z,20.70
2022-08-07T20:27:45.985Z,20.80
2022-08-07T20:31:52.427Z,20.80
2022-08-07T20:36:03.350Z,20.70
2022-08-07T20:40:32.338Z,20.70
2022-08-07T20:44:35.155Z,20.60
2022-08-07T20:48:39.625Z,20.60
2022-08-07T20:53:03.178Z,20.60
2022-08-07T20:57:10.390Z,20.60
2022-08-07T21:01:19.319Z,20.50
2022-08-07T21:05:42.599Z,20.40
2022-08-07T21:10:00.350Z,20.40
2022-08-07T21:14:33.459Z,20.30
2022-08-07T21:18:41.175Z,20.20
2022-08-07T21:22:53.493Z,20.10
2022-08-07T21:27:18.580Z,20.10
2022-08-07T21:32:42.377Z,20.00
2022-08-07T21:36:11.991Z,19.90
2022-08-07T21:40:41.903Z,19.80
2022-08-07T21:44:54.687Z,19.70
2022-08-07T21:49:04.762Z,19.60
2022-08-07T21:53:19.417Z,19.50
2022-08-07T21:57:39.709Z,19.50
2022-08-07T22:02:10.340Z,19.40
2022-08-07T22:06:30.961Z,19.20
2022-08-07T22:10:35.822Z,19.20
2022-08-07T22:14:59.566Z,19.20
2022-08-07T22:19:16.193Z,19.10
2022-08-07T22:23:23.944Z,19.10
2022-08-07T22:27:56.282Z,19.10
2022-08-07T22:32:06.115Z,19.20
2022-08-07T22:36:21.905Z,19.20
2022-08-07T22:40:29.645Z,19.10
2022-08-07T22:44:35.247Z,19.00
2022-08-07T22:49:01.461Z,18.90
2022-08-07T22:54:06.288Z,18.90
2022-08-07T22:58:09.943Z,18.80
2022-08-07T23:02:42.646Z,18.70
2022-08-07T23:07:00.426Z,18.70
2022-08-07T23:11:19.057Z,18.80
2022-08-07T23:16:05.523Z,18.90
2022-08-07T23:20:21.536Z,18.90
2022-08-07T23:24:51.595Z,18.80
2022-08-07T23:29:17.145Z,18.70
2022-08-07T23:34:36.540Z,18.70
2022-08-07T23:38:42.446Z,18.60
2022-08-07T23:43:03.715Z,18.60
2022-08-07T23:47:42.441Z,18.50
2022-08-07T23:53:01.447Z,18.40
2022-08-07T23:56:21.634Z,18.30
